Time;durP1;ratioP1;P1;durP2;ratioP2;P2;SDS_P1;SDS_P2;PMS_P1;PMS_P2;Temp;Humidity;BMP_temperature;BMP_pressure;BME280_temperature;BME280_humidity;BME280_pressure;Samples;Min_cycle;Max_cycle;Signal;HPM_P1;HPM_P2
2022/11/18 00:01:15;;;;;;;1999.90;999.90;;;;;;;8.74;100.00;96415.22;5106149;28;20101;-75
2022/11/18 00:03:41;;;;;;;1999.90;999.90;;;;;;;8.67;100.00;96421.13;5110900;28;20024;-75
2022/11/18 00:06:09;;;;;;;1999.90;999.90;;;;;;;8.76;100.00;96419.22;5111405;28;20038;-76
2022/11/18 00:08:34;;;;;;;1999.90;999.90;;;;;;;8.76;100.00;96412.94;5111322;28;20059;-75
2022/11/18 00:11:08;;;;;;;1999.90;999.90;;;;;;;8.64;100.00;96383.63;5113543;28;20054;-75
2022/11/18 00:16:17;;;;;;;1999.90;999.90;;;;;;;8.73;100.00;96391.78;5113863;28;20132;-75
2022/11/18 00:18:43;;;;;;;1999.90;999.90;;;;;;;8.71;100.00;96396.78;5111235;28;20430;-74
2022/11/18 00:21:10;;;;;;;1999.90;999.90;;;;;;;8.69;100.00;96393.53;5111291;28;20034;-74
2022/11/18 00:23:36;;;;;;;1999.90;999.90;;;;;;;8.79;100.00;96393.22;5111124;28;20483;-75
2022/11/18 00:26:11;;;;;;;1999.90;999.90;;;;;;;8.85;100.00;96391.94;5111382;28;20042;-75
2022/11/18 00:28:37;;;;;;;1999.90;999.90;;;;;;;8.82;100.00;96378.94;5111093;28;20035;-75
2022/11/18 00:31:11;;;;;;;1999.90;999.90;;;;;;;8.82;100.00;96368.84;5110871;28;20487;-74
2022/11/18 00:33:37;;;;;;;1999.90;999.90;;;;;;;8.70;100.00;96365.19;5111083;28;20063;-75
2022/11/18 00:36:04;;;;;;;1999.90;999.90;;;;;;;8.78;100.00;96386.16;5110880;28;20020;-75
2022/11/18 00:38:30;;;;;;;1999.90;999.90;;;;;;;8.76;100.00;96372.88;5110777;28;20031;-74
2022/11/18 00:41:07;;;;;;;1999.90;999.90;;;;;;;8.77;100.00;96371.72;5110985;28;20028;-74
2022/11/18 00:43:33;;;;;;;1999.90;999.90;;;;;;;8.70;100.00;96373.34;5108398;28;20103;-75
2022/11/18 00:45:59;;;;;;;1999.90;999.90;;;;;;;8.78;100.00;96365.16;5101439;28;20053;-74
2022/11/18 00:48:24;;;;;;;1999.90;999.90;;;;;;;8.83;100.00;96358.75;5080313;28;20162;-74
2022/11/18 00:50:52;;;;;;;1999.90;999.90;;;;;;;8.73;100.00;96350.91;5101928;28;20039;-74
2022/11/18 00:53:18;;;;;;;1999.90;999.90;;;;;;;8.70;100.00;96348.81;5100246;28;20564;-74
2022/11/18 00:55:44;;;;;;;1999.90;999.90;;;;;;;8.64;100.00;96347.38;5096826;28;20472;-74
2022/11/18 00:58:13;;;;;;;1999.90;999.90;;;;;;;8.68;100.00;96337.44;5104763;28;20031;-73
2022/11/18 01:00:40;;;;;;;1999.90;999.90;;;;;;;8.70;100.00;96327.03;5105826;28;20072;-73
2022/11/18 01:03:05;;;;;;;1999.90;999.90;;;;;;;8.62;100.00;96309.53;5105295;28;20024;-74
2022/11/18 01:05:30;;;;;;;1999.90;999.90;;;;;;;8.56;100.00;96308.91;5100908;28;20031;-73
2022/11/18 01:07:56;;;;;;;1999.90;999.90;;;;;;;8.53;100.00;96317.75;5103631;28;20043;-73
2022/11/18 01:10:21;;;;;;;1999.90;999.90;;;;;;;8.56;100.00;96317.09;5104996;28;20084;-74
2022/11/18 01:15:40;;;;;;;1999.90;999.90;;;;;;;8.68;100.00;96324.59;5092953;28;20031;-74
2022/11/18 01:18:05;;;;;;;1999.90;999.90;;;;;;;8.60;100.00;96306.34;5108035;28;20088;-74
2022/11/18 01:20:32;;;;;;;1999.90;999.90;;;;;;;8.64;100.00;96322.88;5113065;28;20476;-73
2022/11/18 01:22:57;;;;;;;1999.90;999.90;;;;;;;8.66;100.00;96326.06;5113680;28;20085;-74
2022/11/18 01:25:23;;;;;;;1999.90;999.90;;;;;;;8.69;100.00;96317.22;5114716;28;20024;-73
2022/11/18 01:27:48;;;;;;;1999.90;999.90;;;;;;;8.82;100.00;96324.44;5114474;28;20080;-73
2022/11/18 01:30:15;;;;;;;1999.90;999.90;;;;;;;8.81;100.00;96322.81;5114814;28;20035;-74
2022/11/18 01:32:41;;;;;;;1999.90;999.90;;;;;;;8.86;100.00;96325.38;5114540;28;20024;-74
2022/11/18 01:35:07;;;;;;;1999.90;999.90;;;;;;;8.80;100.00;96307.59;5114656;28;20046;-74
2022/11/18 01:37:33;;;;;;;1999.90;999.90;;;;;;;8.82;100.00;96303.41;5114533;28;20036;-74
2022/11/18 01:39:58;;;;;;;1999.90;999.90;;;;;;;8.80;100.00;96302.16;5114339;28;20036;-74
2022/11/18 01:42:23;;;;;;;1999.90;999.90;;;;;;;8.78;100.00;96301.66;5113422;28;20387;-74
2022/11/18 01:45:13;;;;;;;1999.90;999.90;;;;;;;8.81;100.00;96309.19;5113280;28;20032;-74
2022/11/18 01:47:46;;;;;;;1999.90;999.90;;;;;;;8.74;100.00;96301.50;5113492;28;20024;-74
2022/11/18 01:50:13;;;;;;;1999.90;999.90;;;;;;;8.72;100.00;96295.59;5113349;28;20028;-74
2022/11/18 01:52:40;;;;;;;1999.90;999.90;;;;;;;8.70;100.00;96288.84;5113351;28;20023;-74
2022/11/18 01:55:18;;;;;;;1999.90;999.90;;;;;;;8.67;100.00;96300.41;5113228;28;20023;-74
2022/11/18 01:57:48;;;;;;;1999.90;999.90;;;;;;;8.67;100.00;96289.50;5113148;28;20035;-74
2022/11/18 02:00:14;;;;;;;1999.90;999.90;;;;;;;8.59;100.00;96286.47;5113959;28;20032;-74
2022/11/18 02:02:40;;;;;;;1999.90;999.90;;;;;;;8.58;100.00;96273.97;5113930;28;20046;-74
2022/11/18 02:05:09;;;;;;;1999.90;999.90;;;;;;;8.57;100.00;96266.13;5114222;28;20024;-73
2022/11/18 02:07:37;;;;;;;1999.90;999.90;;;;;;;8.46;100.00;96256.66;5113418;28;20499;-74
2022/11/18 02:10:07;;;;;;;1999.90;999.90;;;;;;;8.43;100.00;96254.59;5113782;28;20035;-74
2022/11/18 02:12:34;;;;;;;1999.90;999.90;;;;;;;8.46;100.00;96260.19;5113852;28;20380;-74
2022/11/18 02:15:01;;;;;;;1999.90;999.90;;;;;;;8.50;100.00;96258.44;5112126;28;20036;-74
2022/11/18 02:17:37;;;;;;;1999.90;999.90;;;;;;;8.52;100.00;96263.59;5112516;28;20084;-73
2022/11/18 02:20:19;;;;;;;1999.90;999.90;;;;;;;8.58;100.00;96268.50;5113869;28;20034;-74
2022/11/18 02:23:12;;;;;;;1999.90;999.90;;;;;;;8.60;100.00;96255.38;5118358;28;20035;-80
2022/11/18 02:25:54;;;;;;;1999.90;999.90;;;;;;;8.65;100.00;96257.13;5116636;28;20035;-73
2022/11/18 02:28:47;;;;;;;1999.90;999.90;;;;;;;8.61;100.00;96237.09;5113498;28;20436;-74
2022/11/18 02:31:21;;;;;;;1999.90;999.90;;;;;;;8.51;100.00;96240.97;5113431;28;20033;-74
2022/11/18 02:34:21;;;;;;;1999.90;999.90;;;;;;;8.57;100.00;96253.31;5113365;28;20032;-74
2022/11/18 02:37:28;;;;;;;1999.90;999.90;;;;;;;8.63;100.00;96258.56;5113216;28;20076;-74
2022/11/18 02:40:05;;;;;;;1999.90;999.90;;;;;;;8.67;100.00;96245.91;5010671;28;20597;-74
2022/11/18 02:42:34;;;;;;;1999.90;999.90;;;;;;;8.66;100.00;96241.56;5010838;28;20441;-74
2022/11/18 02:45:04;;;;;;;1999.90;999.90;;;;;;;8.61;100.00;96248.78;5070273;28;20111;-74
2022/11/18 02:47:32;;;;;;;1999.90;999.90;;;;;;;8.57;100.00;96242.41;5113141;28;20114;-73
2022/11/18 02:50:04;;;;;;;1999.90;999.90;;;;;;;8.53;100.00;96240.63;5112969;28;20031;-74
2022/11/18 02:52:31;;;;;;;1999.90;999.90;;;;;;;8.52;100.00;96242.56;5112998;28;20396;-73
2022/11/18 02:55:00;;;;;;;1999.90;999.90;;;;;;;8.49;100.00;96237.75;5112959;28;20023;-74
2022/11/18 02:57:29;;;;;;;1999.90;999.90;;;;;;;8.50;100.00;96233.91;5094853;28;20035;-74
2022/11/18 02:59:54;;;;;;;1999.90;999.90;;;;;;;8.50;100.00;96224.94;5113001;28;20024;-74
2022/11/18 03:02:20;;;;;;;1999.90;999.90;;;;;;;8.46;100.00;96219.34;5112628;28;20043;-74
2022/11/18 03:04:48;;;;;;;1999.90;999.90;;;;;;;8.42;100.00;96201.25;5112750;28;20031;-74
2022/11/18 03:07:28;;;;;;;1999.90;999.90;;;;;;;8.41;100.00;96211.34;5112639;28;20054;-74
2022/11/18 03:09:54;;;;;;;1999.90;999.90;;;;;;;8.42;100.00;96218.41;5112758;28;20725;-74
2022/11/18 03:12:44;;;;;;;1999.90;999.90;;;;;;;8.49;100.00;96217.88;5112630;28;20164;-74
2022/11/18 03:15:23;;;;;;;1999.90;999.90;;;;;;;8.44;100.00;96218.06;5109886;28;20040;-73
2022/11/18 03:18:06;;;;;;;1999.90;999.90;;;;;;;8.27;100.00;96216.13;5111174;28;20106;-74
2022/11/18 03:20:46;;;;;;;1999.90;999.90;;;;;;;8.31;100.00;96221.78;5096893;28;20114;-74
2022/11/18 03:23:24;;;;;;;1999.90;999.90;;;;;;;8.32;100.00;96226.09;5112200;28;20108;-74
2022/11/18 03:26:01;;;;;;;1999.90;999.90;;;;;;;8.45;100.00;96211.50;5098392;28;20435;-75
2022/11/18 03:28:30;;;;;;;1999.90;999.90;;;;;;;8.46;100.00;96208.44;5091700;28;20028;-74
2022/11/18 03:31:11;;;;;;;1999.90;999.90;;;;;;;8.49;100.00;96205.06;5073273;28;20781;-74
2022/11/18 03:33:44;;;;;;;1999.90;999.90;;;;;;;8.56;100.00;96201.84;5091594;28;20028;-75
2022/11/18 03:36:12;;;;;;;1999.90;999.90;;;;;;;8.48;100.00;96203.47;5091528;28;20050;-74
2022/11/18 03:38:44;;;;;;;1999.90;999.90;;;;;;;8.53;100.00;96207.94;5110227;28;20043;-74
2022/11/18 03:41:13;;;;;;;1999.90;999.90;;;;;;;8.64;100.00;96213.84;5111550;28;20031;-74
2022/11/18 03:43:55;;;;;;;1999.90;999.90;;;;;;;8.71;100.00;96197.81;5112139;28;20024;-75
2022/11/18 03:46:37;;;;;;;1999.90;999.90;;;;;;;8.72;100.00;96193.94;5111954;28;20034;-76
2022/11/18 03:49:06;;;;;;;1999.90;999.90;;;;;;;8.67;100.00;96177.75;5111631;28;20030;-76
2022/11/18 03:51:41;;;;;;;1999.90;999.90;;;;;;;8.55;100.00;96176.50;5103707;28;20031;-75
2022/11/18 03:54:12;;;;;;;1999.90;999.90;;;;;;;8.49;100.00;96180.53;5111496;28;20050;-75
2022/11/18 03:56:44;;;;;;;1999.90;999.90;;;;;;;8.39;100.00;96177.38;5111499;28;20055;-76
2022/11/18 03:59:35;;;;;;;1999.90;999.90;;;;;;;8.39;100.00;96170.03;5111457;28;20039;-75
2022/11/18 04:02:21;;;;;;;1999.90;999.90;;;;;;;8.49;100.00;96179.72;5111324;28;20023;-75
2022/11/18 04:04:49;;;;;;;1999.90;999.90;;;;;;;8.51;100.00;96181.03;5111352;28;20027;-76
2022/11/18 04:07:14;;;;;;;1999.90;999.90;;;;;;;8.49;100.00;96161.47;5111251;28;20104;-75
2022/11/18 04:09:50;;;;;;;1999.90;999.90;;;;;;;8.52;100.00;96163.53;5111368;28;20115;-75
2022/11/18 04:12:19;;;;;;;1999.90;999.90;;;;;;;8.60;100.00;96156.47;5110849;28;20031;-76
2022/11/18 04:14:48;;;;;;;1999.90;999.90;;;;;;;8.67;100.00;96158.69;5110233;28;20020;-76
2022/11/18 04:17:20;;;;;;;1999.90;999.90;;;;;;;8.69;100.00;96161.88;5110565;28;20028;-75
2022/11/18 04:19:46;;;;;;;1999.90;999.90;;;;;;;8.67;100.00;96164.94;5110313;28;20027;-75
2022/11/18 04:22:11;;;;;;;1999.90;999.90;;;;;;;8.66;100.00;96167.97;5110624;28;20031;-75
2022/11/18 04:24:37;;;;;;;1999.90;999.90;;;;;;;8.63;100.00;96160.47;5110610;28;20049;-76
2022/11/18 04:27:03;;;;;;;1999.90;999.90;;;;;;;8.65;100.00;96166.38;5110190;28;20106;-74
2022/11/18 04:29:30;;;;;;;1999.90;999.90;;;;;;;8.70;100.00;96163.50;5111265;28;20034;-75
2022/11/18 04:31:55;;;;;;;1999.90;999.90;;;;;;;8.66;100.00;96167.97;5097146;28;20396;-76
2022/11/18 04:34:20;;;;;;;1999.90;999.90;;;;;;;8.67;100.00;96166.88;5096861;28;20019;-76
2022/11/18 04:36:46;;;;;;;1999.90;999.90;;;;;;;8.74;100.00;96159.00;5113873;28;20027;-76
2022/11/18 04:39:11;;;;;;;1999.90;999.90;;;;;;;8.72;100.00;96147.59;5113603;28;20023;-75
2022/11/18 04:41:54;;;;;;;1999.90;999.90;;;;;;;8.73;100.00;96150.00;5114141;28;20027;-75
2022/11/18 04:44:25;;;;;;;1999.90;999.90;;;;;;;8.73;100.00;96151.94;5111998;28;20023;-76
2022/11/18 04:46:51;;;;;;;1999.90;999.90;;;;;;;8.70;100.00;96150.66;5113547;28;20016;-74
2022/11/18 04:49:16;;;;;;;1999.90;999.90;;;;;;;8.71;100.00;96143.28;5111336;28;20023;-76
2022/11/18 04:51:43;;;;;;;1999.90;999.90;;;;;;;8.77;100.00;96137.28;5111125;28;20403;-77
2022/11/18 04:54:09;;;;;;;1999.90;999.90;;;;;;;8.77;100.00;96131.06;5110720;28;20027;-75
2022/11/18 04:56:35;;;;;;;1999.90;999.90;;;;;;;8.74;100.00;96131.72;5110630;28;20030;-75
2022/11/18 04:59:02;;;;;;;1999.90;999.90;;;;;;;8.76;100.00;96137.66;5110989;28;20024;-75
2022/11/18 05:01:28;;;;;;;1999.90;999.90;;;;;;;8.84;100.00;96134.88;5110820;28;20549;-76
2022/11/18 05:03:54;;;;;;;1999.90;999.90;;;;;;;8.85;100.00;96130.22;5110342;28;20035;-75
2022/11/18 05:06:20;;;;;;;1999.90;999.90;;;;;;;8.88;100.00;96132.28;5110788;28;20022;-76
2022/11/18 05:08:46;;;;;;;1999.90;999.90;;;;;;;8.85;100.00;96127.50;5110361;28;20039;-73
2022/11/18 05:13:55;;;;;;;1999.90;999.90;;;;;;;8.83;100.00;96124.31;5111070;28;20081;-75
2022/11/18 05:16:21;;;;;;;1999.90;999.90;;;;;;;8.86;100.00;96126.38;5110580;28;20538;-75
2022/11/18 05:18:46;;;;;;;1999.90;999.90;;;;;;;8.85;100.00;96122.03;5110640;28;20055;-76
2022/11/18 05:21:11;;;;;;;1999.90;999.90;;;;;;;8.85;100.00;96117.38;5107950;28;20392;-76
2022/11/18 05:23:37;;;;;;;1999.90;999.90;;;;;;;8.90;100.00;96111.75;5099811;28;20032;-76
2022/11/18 05:26:03;;;;;;;1999.90;999.90;;;;;;;8.97;100.00;96108.50;5089593;28;20400;-75
2022/11/18 05:28:29;;;;;;;1999.90;999.90;;;;;;;9.05;100.00;96115.84;5101661;28;20028;-75
2022/11/18 05:30:54;;;;;;;1999.90;999.90;;;;;;;9.04;100.00;96111.50;5109997;28;20396;-75
2022/11/18 05:33:19;;;;;;;1999.90;999.90;;;;;;;9.02;100.00;96100.13;5110500;28;20044;-76
2022/11/18 05:35:45;;;;;;;1999.90;999.90;;;;;;;8.96;100.00;96094.06;5110297;28;21066;-76
2022/11/18 05:38:10;;;;;;;1999.90;999.90;;;;;;;8.98;100.00;96093.75;5110302;28;20031;-75
2022/11/18 05:40:35;;;;;;;1999.90;999.90;;;;;;;8.89;100.00;96093.00;5110205;28;20065;-75
2022/11/18 05:43:09;;;;;;;1999.90;999.90;;;;;;;8.90;100.00;96098.09;5093723;28;20113;-77
2022/11/18 05:45:35;;;;;;;1999.90;999.90;;;;;;;8.97;100.00;96103.03;5114418;28;20024;-76
2022/11/18 05:48:02;;;;;;;1999.90;999.90;;;;;;;8.96;100.00;96104.16;5095889;28;20096;-75
2022/11/18 05:50:28;;;;;;;1999.90;999.90;;;;;;;9.00;100.00;96110.56;5114129;28;20036;-74
2022/11/18 05:52:53;;;;;;;1999.90;999.90;;;;;;;9.09;100.00;96108.56;5114227;28;20472;-76
2022/11/18 05:55:21;;;;;;;1999.90;999.90;;;;;;;9.10;100.00;96104.72;5114320;28;20031;-75
2022/11/18 05:57:46;;;;;;;1999.90;999.90;;;;;;;9.10;100.00;96088.34;5114115;28;20028;-76
2022/11/18 06:00:12;;;;;;;1999.90;999.90;;;;;;;9.11;100.00;96096.19;5113944;28;20043;-76
2022/11/18 06:02:40;;;;;;;1999.90;999.90;;;;;;;9.11;100.00;96095.41;5095329;28;20381;-75
2022/11/18 06:05:06;;;;;;;1999.90;999.90;;;;;;;9.17;100.00;96110.47;5113612;28;20042;-76
2022/11/18 06:07:41;;;;;;;1999.90;999.90;;;;;;;9.12;100.00;96105.97;5113589;28;20039;-75
2022/11/18 06:10:08;;;;;;;;;;;;;;;9.19;100.00;96108.19;5114018;28;20036;-76
2022/11/18 06:12:38;;;;;;;1999.90;999.90;;;;;;;9.15;100.00;96104.50;5114816;28;20368;-76
2022/11/18 06:15:18;;;;;;;1999.90;999.90;;;;;;;9.13;100.00;96107.59;5113912;28;20024;-75
2022/11/18 06:17:47;;;;;;;1999.90;999.90;;;;;;;9.21;100.00;96100.47;5110310;28;20480;-75
2022/11/18 06:20:13;;;;;;;1999.90;999.90;;;;;;;9.23;100.00;96106.41;5103810;28;20063;-77
2022/11/18 06:22:38;;;;;;;1999.90;999.90;;;;;;;9.21;100.00;96103.19;5097560;28;20042;-74
2022/11/18 06:25:04;;;;;;;1999.90;999.90;;;;;;;9.23;100.00;96114.59;5097624;28;20106;-74
2022/11/18 06:27:30;;;;;;;1999.90;999.90;;;;;;;9.17;100.00;96117.84;5098568;28;20415;-75
2022/11/18 06:29:55;;;;;;;1999.90;999.90;;;;;;;9.16;100.00;96117.03;5102738;28;20604;-76
2022/11/18 06:32:20;;;;;;;1999.90;999.90;;;;;;;9.24;100.00;96115.38;5100952;28;20447;-74
2022/11/18 06:34:46;;;;;;;1999.90;999.90;;;;;;;9.28;100.00;96119.84;5095299;28;20131;-75
2022/11/18 06:37:16;;;;;;;1999.90;999.90;;;;;;;9.32;100.00;96115.31;5094037;28;20544;-75
2022/11/18 06:39:42;;;;;;;1999.90;999.90;;;;;;;9.21;100.00;96114.09;5094542;28;20020;-78
2022/11/18 06:42:07;;;;;;;1999.90;999.90;;;;;;;9.21;100.00;96119.56;5102569;28;20067;-77
2022/11/18 06:44:33;;;;;;;1999.90;999.90;;;;;;;9.35;100.00;96122.03;5110304;28;20039;-76
2022/11/18 06:46:58;;;;;;;1999.90;999.90;;;;;;;9.39;100.00;96125.69;5113221;28;20035;-76
2022/11/18 06:49:24;;;;;;;1999.90;999.90;;;;;;;9.42;100.00;96142.22;5113948;28;20106;-74
2022/11/18 06:51:50;;;;;;;1999.90;999.90;;;;;;;9.39;100.00;96142.06;5112536;28;20027;-78
2022/11/18 06:54:15;;;;;;;1999.90;999.90;;;;;;;9.45;100.00;96144.28;5111214;28;20038;-77
2022/11/18 06:56:41;;;;;;;1999.90;999.90;;;;;;;9.54;100.00;96155.91;5112012;28;20419;-78
2022/11/18 06:59:06;;;;;;;1999.90;999.90;;;;;;;9.48;100.00;96157.25;5112853;28;20031;-76
2022/11/18 07:01:35;;;;;;;1999.90;999.90;;;;;;;9.50;100.00;96149.53;5110475;28;20021;-76
2022/11/18 07:04:02;;;;;;;1999.90;999.90;;;;;;;9.55;100.00;96152.03;5105292;28;20412;-77
2022/11/18 07:06:29;;;;;;;1999.90;999.90;;;;;;;9.55;100.00;96149.31;5093843;28;20108;-78
2022/11/18 07:08:56;;;;;;;1999.90;999.90;;;;;;;9.62;100.00;96152.31;5097316;28;20020;-76
2022/11/18 07:11:24;;;;;;;1999.90;999.90;;;;;;;9.49;100.00;96144.41;5098677;28;20059;-75
2022/11/18 07:13:50;;;;;;;1999.90;999.90;;;;;;;9.45;100.00;96152.47;5092076;28;20024;-76
2022/11/18 07:16:21;;;;;;;1999.90;999.90;;;;;;;9.53;100.00;96145.31;5094883;28;20038;-75
2022/11/18 07:18:48;;;;;;;1999.90;999.90;;;;;;;9.49;100.00;96142.47;5092240;28;20027;-75
2022/11/18 07:21:18;;;;;;;1999.90;999.90;;;;;;;9.51;100.00;96145.66;5109900;28;20027;-76
2022/11/18 07:23:45;;;;;;;1999.90;999.90;;;;;;;9.52;100.00;96141.78;5112393;28;20392;-75
2022/11/18 07:26:11;;;;;;;1999.90;999.90;;;;;;;9.57;100.00;96157.97;5112555;28;20031;-75
2022/11/18 07:28:36;;;;;;;1999.90;999.90;;;;;;;9.60;100.00;96151.84;5112945;28;20024;-75
2022/11/18 07:31:10;;;;;;;1999.90;999.90;;;;;;;9.55;100.00;96145.81;5118127;28;20028;-85
2022/11/18 07:33:37;;;;;;;1999.90;999.90;;;;;;;9.56;100.00;96153.66;5113398;28;20036;-85
2022/11/18 07:36:05;;;;;;;1999.90;999.90;;;;;;;9.60;100.00;96157.31;5106334;28;20385;-78
2022/11/18 07:38:30;;;;;;;1999.90;999.90;;;;;;;9.61;100.00;96145.28;5109061;28;20099;-83
2022/11/18 07:41:27;;;;;;;1999.90;999.90;;;;;;;9.53;100.00;96154.31;5084348;28;20468;-79
2022/11/18 07:43:56;;;;;;;1999.90;999.90;;;;;;;9.67;100.00;96160.31;5072483;28;20086;-79
2022/11/18 07:46:23;;;;;;;1999.90;999.90;;;;;;;9.89;100.00;96155.63;5091897;28;20059;-74
2022/11/18 07:48:50;;;;;;;1999.90;999.90;;;;;;;10.09;100.00;96143.84;5090781;28;20036;-76
2022/11/18 07:51:19;;;;;;;1999.90;999.90;;;;;;;10.13;100.00;96147.53;5092220;28;20070;-75
2022/11/18 07:53:45;;;;;;;1999.90;999.90;;;;;;;10.27;100.00;96148.06;5111671;28;20054;-76
2022/11/18 07:56:12;;;;;;;1999.90;999.90;;;;;;;10.37;100.00;96150.34;5096359;28;20802;-75
2022/11/18 07:58:38;;;;;;;1999.90;999.90;;;;;;;10.45;100.00;96159.59;5090997;28;20028;-76
2022/11/18 08:01:07;;;;;;;1999.90;999.90;;;;;;;10.48;100.00;96167.91;5091332;28;20034;-76
2022/11/18 08:03:33;;;;;;;1999.90;999.90;;;;;;;10.43;100.00;96164.63;5090838;28;20039;-76
2022/11/18 08:05:59;;;;;;;1999.90;999.90;;;;;;;10.42;100.00;96163.81;5103208;28;20084;-75
2022/11/18 08:08:25;;;;;;;1999.90;999.90;;;;;;;10.43;100.00;96165.38;5111271;28;20756;-77
2022/11/18 08:10:55;;;;;;;1999.90;999.90;;;;;;;10.44;100.00;96164.25;5111377;28;20016;-77
2022/11/18 08:13:21;;;;;;;1999.90;999.90;;;;;;;10.34;100.00;96142.81;5111421;28;20031;-75
2022/11/18 08:15:46;;;;;;;1999.90;999.90;;;;;;;10.16;100.00;96160.53;5112119;28;20072;-80
2022/11/18 08:18:12;;;;;;;1999.90;999.90;;;;;;;10.13;100.00;96145.63;5110636;28;20496;-75
2022/11/18 08:20:37;;;;;;;1999.90;999.90;;;;;;;10.12;100.00;96133.06;5098524;28;20020;-76
2022/11/18 08:23:03;;;;;;;1999.90;999.90;;;;;;;10.20;100.00;96139.63;5106881;28;20031;-75
2022/11/18 08:25:28;;;;;;;1999.90;999.90;;;;;;;10.28;100.00;96140.63;5093462;28;20019;-75
2022/11/18 08:27:54;;;;;;;1999.90;999.90;;;;;;;10.28;100.00;96141.44;5110076;28;20069;-75
2022/11/18 08:30:19;;;;;;;1999.90;999.90;;;;;;;10.29;100.00;96148.50;5112056;28;20024;-84
2022/11/18 08:32:44;;;;;;;1999.90;999.90;;;;;;;10.26;100.00;96146.47;5120300;28;20040;-89
2022/11/18 08:35:10;;;;;;;1999.90;999.90;;;;;;;10.15;100.00;96132.41;5116718;28;20032;-82
2022/11/18 08:37:35;;;;;;;1999.90;999.90;;;;;;;10.21;100.00;96130.28;5112968;28;20023;-78
2022/11/18 08:40:00;;;;;;;1999.90;999.90;;;;;;;10.33;100.00;96133.03;5112611;28;20019;-77
2022/11/18 08:42:26;;;;;;;1999.90;999.90;;;;;;;10.47;100.00;96138.19;5110578;28;20066;-84
2022/11/18 08:44:51;;;;;;;1999.90;999.90;;;;;;;10.59;100.00;96132.72;5112063;28;20094;-78
2022/11/18 08:47:17;;;;;;;1999.90;999.90;;;;;;;10.67;100.00;96132.63;5112360;28;20396;-79
2022/11/18 08:49:42;;;;;;;1999.90;999.90;;;;;;;10.91;100.00;96120.91;5117776;28;20115;-80
2022/11/18 08:52:08;;;;;;;1999.90;999.90;;;;;;;11.00;100.00;96124.31;5117256;28;20031;-79
2022/11/18 08:54:34;;;;;;;1999.90;999.90;;;;;;;10.88;100.00;96127.06;5111943;28;20106;-81
2022/11/18 08:56:59;;;;;;;1999.90;999.90;;;;;;;10.90;100.00;96129.47;5111657;28;20540;-80
2022/11/18 08:59:25;;;;;;;1999.90;999.90;;;;;;;11.06;100.00;96136.63;5111483;28;20032;-80
2022/11/18 09:01:50;;;;;;;1999.90;999.90;;;;;;;11.04;100.00;96136.16;5111893;28;20084;-77
2022/11/18 09:04:16;;;;;;;1999.90;999.90;;;;;;;11.03;100.00;96122.81;5111412;28;20031;-80
2022/11/18 09:06:41;;;;;;;1999.90;999.90;;;;;;;11.09;100.00;96127.72;5111424;28;20370;-79
2022/11/18 09:09:07;;;;;;;1999.90;999.90;;;;;;;10.99;100.00;96135.63;5111413;28;20061;-80
2022/11/18 09:11:33;;;;;;;1999.90;999.90;;;;;;;10.99;100.00;96143.81;5111199;28;20051;-76
2022/11/18 09:13:59;;;;;;;1999.90;999.90;;;;;;;10.87;100.00;96138.34;5111409;28;20529;-80
2022/11/18 09:16:27;;;;;;;1999.90;999.90;;;;;;;10.82;100.00;96139.38;5111790;28;20023;-80
2022/11/18 09:18:55;;;;;;;1999.90;999.90;;;;;;;10.85;100.00;96124.19;5114316;28;20464;-77
2022/11/18 09:21:21;;;;;;;1999.90;999.90;;;;;;;10.83;100.00;96123.75;5115093;28;20032;-82
2022/11/18 09:23:46;;;;;;;1999.90;999.90;;;;;;;10.70;100.00;96128.41;5115010;28;20031;-76
2022/11/18 09:26:18;;;;;;;1999.90;999.90;;;;;;;10.77;100.00;96132.16;5115038;28;20034;-75
2022/11/18 09:28:43;;;;;;;1999.90;999.90;;;;;;;10.79;100.00;96141.97;5115080;28;20084;-78
2022/11/18 09:31:11;;;;;;;1999.90;999.90;;;;;;;10.85;100.00;96146.09;5114760;28;20028;-81
2022/11/18 09:33:37;;;;;;;1999.90;999.90;;;;;;;10.87;100.00;96135.63;5114983;28;20023;-79
2022/11/18 09:36:21;;;;;;;1999.90;999.90;;;;;;;10.87;100.00;96146.56;5115135;28;20031;-76
2022/11/18 09:38:47;;;;;;;1999.90;999.90;;;;;;;10.81;100.00;96159.63;5106697;28;20105;-81
2022/11/18 09:41:29;;;;;;;1999.90;999.90;;;;;;;10.77;100.00;96158.75;5094348;28;20468;-79
2022/11/18 09:44:12;;;;;;;1999.90;999.90;;;;;;;10.88;100.00;96157.13;5095828;28;20035;-84
2022/11/18 09:46:55;;;;;;;1999.90;999.90;;;;;;;10.81;100.00;96156.13;5104494;28;20024;-77
2022/11/18 09:49:30;;;;;;;1999.90;999.90;;;;;;;10.71;100.00;96160.09;5101136;28;20040;-75
2022/11/18 09:52:00;;;;;;;1999.90;999.90;;;;;;;10.69;100.00;96141.28;5109047;28;20059;-76
2022/11/18 09:54:30;;;;;;;1999.90;999.90;;;;;;;10.61;100.00;96139.47;5104710;28;20042;-77
2022/11/18 09:56:56;;;;;;;1999.90;999.90;;;;;;;10.61;100.00;96136.75;5103104;28;20023;-79
2022/11/18 09:59:24;;;;;;;1999.90;999.90;;;;;;;10.57;100.00;96146.75;5084739;28;20035;-75
2022/11/18 10:01:52;;;;;;;1999.90;999.90;;;;;;;10.60;100.00;96154.28;5104001;28;20430;-77
2022/11/18 10:04:20;;;;;;;1999.90;999.90;;;;;;;10.73;100.00;96161.34;5101576;28;20380;-78
2022/11/18 10:06:47;;;;;;;1999.90;999.90;;;;;;;10.73;100.00;96169.56;5101603;28;20047;-84
2022/11/18 10:09:32;;;;;;;1999.90;999.90;;;;;;;10.77;100.00;96168.88;5108582;28;20122;-78
2022/11/18 10:12:08;;;;;;;1999.90;999.90;;;;;;;10.68;100.00;96167.03;5104922;28;20023;-77
2022/11/18 10:14:36;;;;;;;1999.90;999.90;;;;;;;10.69;100.00;96168.63;5104398;28;20547;-77
2022/11/18 10:17:33;;;;;;;1999.90;999.90;;;;;;;10.67;100.00;96170.13;5103017;28;20020;-81
2022/11/18 10:20:09;;;;;;;1999.90;999.90;;;;;;;10.61;100.00;96172.28;5101881;28;20024;-78
2022/11/18 10:22:58;;;;;;;1999.90;999.90;;;;;;;10.46;100.00;96174.88;5101791;28;20036;-78
2022/11/18 10:25:24;;;;;;;1999.90;999.90;;;;;;;10.48;100.00;96184.31;5103976;28;20031;-78
2022/11/18 10:27:54;;;;;;;1999.90;999.90;;;;;;;10.55;100.00;96168.16;5103101;28;20024;-79
2022/11/18 10:30:24;;;;;;;1999.90;999.90;;;;;;;10.54;100.00;96161.09;5101849;28;20119;-80
2022/11/18 10:33:03;;;;;;;1999.90;999.90;;;;;;;10.58;100.00;96172.16;5101697;28;20027;-77
2022/11/18 10:35:33;;;;;;;1999.90;999.90;;;;;;;10.57;100.00;96160.41;5102702;28;20032;-77
2022/11/18 10:38:12;;;;;;;1999.90;999.90;;;;;;;10.63;100.00;96172.72;5101558;28;20027;-82
2022/11/18 10:40:45;;;;;;;1999.90;999.90;;;;;;;10.49;100.00;96166.00;5103683;28;20038;-86
2022/11/18 10:43:14;;;;;;;1999.90;999.90;;;;;;;10.64;100.00;96171.59;5102116;28;20024;-78
2022/11/18 10:45:39;;;;;;;1999.90;999.90;;;;;;;10.80;100.00;96168.19;5106982;28;20027;-80
2022/11/18 10:48:14;;;;;;;1999.90;999.90;;;;;;;10.90;100.00;96162.28;5107498;28;20065;-80
2022/11/18 10:50:41;;;;;;;1999.90;999.90;;;;;;;11.04;100.00;96154.53;5102902;28;20523;-83
2022/11/18 10:53:28;;;;;;;1999.90;999.90;;;;;;;11.10;100.00;96153.16;5105731;28;20043;-79
2022/11/18 10:56:12;;;;;;;1999.90;999.90;;;;;;;11.03;100.00;96141.97;5104295;28;20070;-75
2022/11/18 10:58:42;;;;;;;1999.90;999.90;;;;;;;10.88;100.00;96142.66;5108151;28;20502;-85
2022/11/18 11:01:25;;;;;;;1999.90;999.90;;;;;;;10.87;100.00;96163.75;5113016;28;20038;-78
2022/11/18 11:04:14;;;;;;;1999.90;999.90;;;;;;;10.88;100.00;96159.88;5113510;28;20438;-79
2022/11/18 11:06:39;;;;;;;1999.90;999.90;;;;;;;10.77;100.00;96171.63;5109021;28;20107;-78
2022/11/18 11:09:14;;;;;;;1999.90;999.90;;;;;;;10.76;100.00;96173.53;5104117;28;20051;-82
2022/11/18 11:11:56;;;;;;;1999.90;999.90;;;;;;;10.48;100.00;96178.84;5100316;28;20024;-79